Time;durP1;ratioP1;P1;durP2;ratioP2;P2;SDS_P1;SDS_P2;PMS_P1;PMS_P2;Temp;Humidity;BMP_temperature;BMP_pressure;BME280_temperature;BME280_humidity;BME280_pressure;Samples;Min_cycle;Max_cycle;Signal;HPM_P1;HPM_P2
2023/10/09 00:01:53;;;;;;;7.50;4.20;;;;;;;1.56;71.59;101302.17;109133;276;38590;-66
2023/10/09 00:04:31;;;;;;;6.70;4.00;;;;;;;1.55;71.68;101294.92;109133;276;38764;-67
2023/10/09 00:07:08;;;;;;;5.90;3.70;;;;;;;1.53;71.82;101295.25;109142;276;38243;-67
2023/10/09 00:09:47;;;;;;;6.20;4.40;;;;;;;1.50;71.88;101292.63;109064;276;38327;-67
2023/10/09 00:12:23;;;;;;;7.20;4.40;;;;;;;1.48;72.17;101294.83;109100;276;39204;-66
2023/10/09 00:15:10;;;;;;;9.00;4.00;;;;;;;1.44;72.16;101296.50;109103;276;38568;-66
2023/10/09 00:17:46;;;;;;;7.10;3.80;;;;;;;1.42;72.34;101288.91;109163;276;39344;-71
2023/10/09 00:20:38;;;;;;;7.20;3.90;;;;;;;1.43;72.48;101291.84;109139;276;39653;-69
2023/10/09 00:23:16;;;;;;;6.90;4.10;;;;;;;1.43;72.59;101287.55;109194;276;38167;-69
2023/10/09 00:26:09;;;;;;;6.90;4.30;;;;;;;1.43;72.70;101289.95;109170;276;39712;-67
2023/10/09 00:28:47;;;;;;;8.10;4.50;;;;;;;1.41;72.81;101287.52;109175;276;38377;-67
2023/10/09 00:31:33;;;;;;;7.10;4.10;;;;;;;1.39;72.94;101278.20;109177;276;38936;-67
2023/10/09 00:34:19;;;;;;;6.10;3.80;;;;;;;1.39;73.15;101283.70;109171;276;38787;-66
2023/10/09 00:37:04;;;;;;;6.40;4.20;;;;;;;1.39;73.18;101279.95;109126;276;38210;-68
2023/10/09 00:39:43;;;;;;;7.90;4.20;;;;;;;1.40;73.16;101271.86;109151;276;38146;-69
2023/10/09 00:42:25;;;;;;;;;;;;;;;1.40;73.24;101260.34;109044;276;189167;-69
2023/10/09 00:45:04;;;;;;;7.10;4.60;;;;;;;1.38;73.56;101254.13;109108;276;38457;-68
2023/10/09 00:47:40;;;;;;;7.20;3.90;;;;;;;1.37;73.55;101258.41;109149;276;38301;-68
2023/10/09 00:50:21;;;;;;;7.50;4.50;;;;;;;1.35;73.42;101255.28;109123;276;38435;-68
2023/10/09 00:53:02;;;;;;;7.50;4.50;;;;;;;1.35;73.54;101257.86;109051;276;38890;-67
2023/10/09 00:55:45;;;;;;;9.70;4.50;;;;;;;1.36;73.68;101250.83;109091;276;39682;-69
2023/10/09 00:58:26;;;;;;;8.10;4.30;;;;;;;1.37;73.82;101248.26;109171;276;38069;-66
2023/10/09 01:01:15;;;;;;;7.90;4.80;;;;;;;1.36;73.96;101246.70;109092;276;38498;-67
2023/10/09 01:03:59;;;;;;;8.90;4.40;;;;;;;1.35;74.14;101246.69;109137;276;38812;-67
2023/10/09 01:06:42;;;;;;;7.70;4.10;;;;;;;1.35;74.18;101247.20;109134;276;39674;-69
2023/10/09 01:09:21;;;;;;;8.50;4.80;;;;;;;1.39;74.29;101246.92;109157;276;38410;-68
2023/10/09 01:12:07;;;;;;;10.20;5.30;;;;;;;1.44;74.36;101243.55;109208;276;38158;-67
2023/10/09 01:14:44;;;;;;;7.60;4.40;;;;;;;1.46;74.29;101228.95;109136;276;39718;-67
2023/10/09 01:17:35;;;;;;;8.50;4.90;;;;;;;1.45;74.24;101226.88;109213;276;38251;-67
2023/10/09 01:20:30;;;;;;;8.80;4.70;;;;;;;1.45;74.45;101230.49;109146;276;39798;-67
2023/10/09 01:23:09;;;;;;;8.00;3.90;;;;;;;1.44;74.63;101233.75;109174;276;38272;-67
2023/10/09 01:25:49;;;;;;;6.10;3.70;;;;;;;1.45;74.61;101212.61;108952;276;39392;-67
2023/10/09 01:28:28;;;;;;;6.80;4.40;;;;;;;1.50;74.79;101207.69;109088;276;38427;-66
2023/10/09 01:31:20;;;;;;;7.10;4.00;;;;;;;1.55;74.78;101210.84;109107;276;38952;-68
2023/10/09 01:33:59;;;;;;;7.50;4.00;;;;;;;1.56;74.79;101202.08;109097;276;38246;-68
2023/10/09 01:36:39;;;;;;;6.00;4.10;;;;;;;1.56;74.80;101203.45;109061;276;38790;-68
2023/10/09 01:39:26;;;;;;;7.80;4.30;;;;;;;1.55;75.00;101208.96;109113;276;38369;-68
2023/10/09 01:42:05;;;;;;;8.10;4.10;;;;;;;1.55;74.95;101217.20;109080;276;38776;-66
2023/10/09 01:44:44;;;;;;;8.10;4.20;;;;;;;1.57;75.05;101212.24;109056;276;38927;-69
2023/10/09 01:47:21;;;;;;;5.80;3.90;;;;;;;1.61;75.04;101207.13;109138;276;38750;-67
2023/10/09 01:50:05;;;;;;;7.00;3.90;;;;;;;1.67;75.15;101201.70;109124;276;39595;-66
2023/10/09 01:52:42;;;;;;;9.30;5.10;;;;;;;1.74;75.23;101206.43;109145;276;38605;-69
2023/10/09 01:55:28;;;;;;;7.60;4.50;;;;;;;1.82;75.31;101206.00;109147;276;38720;-69
2023/10/09 01:58:06;;;;;;;7.20;4.60;;;;;;;1.88;75.30;101205.55;109210;276;39558;-71
2023/10/09 02:00:48;;;;;;;5.60;4.20;;;;;;;1.94;75.14;101193.91;109023;276;175860;-68
2023/10/09 02:03:29;;;;;;;6.90;3.90;;;;;;;2.00;75.14;101193.98;109013;276;40020;-66
2023/10/09 02:06:18;;;;;;;6.10;3.90;;;;;;;2.08;75.00;101187.69;109200;276;39399;-69
2023/10/09 02:08:56;;;;;;;7.20;4.30;;;;;;;2.14;74.80;101192.40;109080;276;39594;-69
2023/10/09 02:11:41;;;;;;;6.70;4.30;;;;;;;2.19;74.72;101194.67;109144;276;39628;-70
2023/10/09 02:14:20;;;;;;;6.00;4.10;;;;;;;2.21;74.62;101197.61;109022;276;175839;-69
2023/10/09 02:17:08;;;;;;;6.00;4.30;;;;;;;2.21;74.55;101190.75;109146;276;38758;-69
2023/10/09 02:19:42;;;;;;;7.40;4.40;;;;;;;2.22;74.54;101181.80;109099;276;38465;-69
2023/10/09 02:22:18;;;;;;;6.20;3.50;;;;;;;2.27;74.45;101186.48;109132;276;38451;-69
2023/10/09 02:24:57;;;;;;;6.60;3.90;;;;;;;2.31;74.30;101191.85;109155;276;39850;-68
2023/10/09 02:27:45;;;;;;;9.40;4.30;;;;;;;2.34;74.28;101183.61;109092;276;39859;-69
2023/10/09 02:30:27;;;;;;;8.50;4.40;;;;;;;2.36;74.25;101181.74;109135;276;38389;-68
2023/10/09 02:33:09;;;;;;;5.20;4.20;;;;;;;2.39;74.23;101182.63;109178;276;39905;-69
2023/10/09 02:35:51;;;;;;;8.50;4.80;;;;;;;2.41;74.29;101176.61;109227;276;38315;-67
2023/10/09 02:38:40;;;;;;;6.00;4.30;;;;;;;2.41;74.19;101176.27;109168;276;38526;-66
2023/10/09 02:41:32;;;;;;;8.50;4.10;;;;;;;2.46;74.07;101180.10;109124;276;39170;-67
2023/10/09 02:44:15;;;;;;;7.20;4.30;;;;;;;2.52;74.01;101182.91;109119;276;38890;-66
2023/10/09 02:46:57;;;;;;;8.30;4.90;;;;;;;2.56;74.01;101177.26;108715;276;597053;-67
2023/10/09 02:49:34;;;;;;;7.50;4.30;;;;;;;2.58;73.93;101171.25;108982;276;39069;-67
2023/10/09 02:52:18;;;;;;;6.40;4.40;;;;;;;2.62;73.91;101173.16;109086;276;38253;-68
2023/10/09 02:55:00;;;;;;;9.00;4.40;;;;;;;2.62;73.81;101175.23;109099;276;38504;-69
2023/10/09 02:57:45;;;;;;;7.30;3.80;;;;;;;2.58;73.79;101170.90;109080;276;38754;-69
2023/10/09 03:00:31;;;;;;;6.80;4.00;;;;;;;2.59;73.88;101169.70;109084;276;39878;-69
2023/10/09 03:03:09;;;;;;;6.20;4.00;;;;;;;2.64;73.84;101167.66;109095;276;38475;-67
2023/10/09 03:05:49;;;;;;;7.20;4.60;;;;;;;2.67;73.77;101172.35;109083;276;39061;-70
2023/10/09 03:08:24;;;;;;;6.50;4.30;;;;;;;2.68;73.80;101171.50;109127;276;38527;-67
2023/10/09 03:11:13;;;;;;;8.80;4.80;;;;;;;2.69;73.91;101168.05;109133;276;38605;-70
2023/10/09 03:13:52;;;;;;;8.00;5.10;;;;;;;2.68;73.83;101167.53;109116;276;38322;-68
2023/10/09 03:16:30;;;;;;;6.80;4.50;;;;;;;2.69;74.00;101166.67;109116;276;40321;-69
2023/10/09 03:19:11;;;;;;;8.10;4.40;;;;;;;2.71;73.88;101164.27;109043;276;38244;-69
2023/10/09 03:21:48;;;;;;;7.10;4.60;;;;;;;2.74;73.85;101166.02;109181;276;39230;-67
2023/10/09 03:24:28;;;;;;;7.20;5.10;;;;;;;2.77;73.76;101162.25;109101;276;38335;-66
2023/10/09 03:27:05;;;;;;;8.60;5.60;;;;;;;2.78;73.79;101162.77;109050;276;38237;-67
2023/10/09 03:29:53;;;;;;;8.60;4.80;;;;;;;2.78;73.75;101167.09;108994;276;38355;-67
2023/10/09 03:32:32;;;;;;;8.70;4.80;;;;;;;2.76;73.74;101166.55;108894;277;38606;-66
2023/10/09 03:35:24;;;;;;;7.30;4.80;;;;;;;2.75;73.79;101164.98;108768;277;175811;-67
2023/10/09 03:38:11;;;;;;;7.70;5.10;;;;;;;2.75;73.81;101163.09;108903;277;39873;-66
2023/10/09 03:40:53;;;;;;;7.60;4.80;;;;;;;2.78;73.75;101156.40;108954;277;38617;-70
2023/10/09 03:43:37;;;;;;;7.90;5.00;;;;;;;2.80;73.87;101155.02;108919;277;38443;-68
2023/10/09 03:46:21;;;;;;;8.50;5.30;;;;;;;2.79;73.84;101151.23;108856;277;175423;-67
2023/10/09 03:49:10;;;;;;;8.90;5.90;;;;;;;2.77;73.76;101155.52;108898;277;38424;-67
2023/10/09 03:51:51;;;;;;;9.20;5.30;;;;;;;2.73;73.82;101155.50;108975;277;39338;-66
2023/10/09 03:54:30;;;;;;;7.70;5.30;;;;;;;2.71;74.11;101155.48;109010;277;38211;-66
2023/10/09 03:57:06;;;;;;;7.50;5.10;;;;;;;2.71;74.01;101149.10;108957;277;38547;-67
2023/10/09 03:59:42;;;;;;;8.40;5.60;;;;;;;2.74;74.22;101149.30;108983;277;38565;-67
2023/10/09 04:02:25;;;;;;;9.30;5.20;;;;;;;2.79;74.27;101148.81;108993;277;41096;-68
2023/10/09 04:05:08;;;;;;;8.10;4.80;;;;;;;2.84;74.27;101155.39;109023;277;38793;-69
2023/10/09 04:07:44;;;;;;;7.60;5.10;;;;;;;2.85;74.29;101155.58;108964;277;38542;-67
2023/10/09 04:10:51;;;;;;;7.60;5.10;;;;;;;2.84;74.20;101149.70;108941;277;38252;-68
2023/10/09 04:13:38;;;;;;;;;;;;;;;2.82;74.26;101150.91;108922;277;38828;-65
2023/10/09 04:16:33;;;;;;;8.80;4.90;;;;;;;2.82;74.42;101150.23;108923;277;39480;-67
2023/10/09 04:19:11;;;;;;;7.80;5.20;;;;;;;2.88;74.44;101146.46;108936;277;38383;-68
2023/10/09 04:21:48;;;;;;;10.70;5.20;;;;;;;2.92;74.26;101142.53;108951;277;38654;-69
2023/10/09 04:24:27;;;;;;;8.40;5.40;;;;;;;2.94;74.17;101142.70;108940;277;39148;-69
2023/10/09 04:27:08;;;;;;;8.70;5.20;;;;;;;2.97;74.20;101133.42;108961;277;38738;-66
2023/10/09 04:29:50;;;;;;;7.90;4.90;;;;;;;2.99;74.18;101129.63;108965;277;38211;-67
2023/10/09 04:32:34;;;;;;;10.40;5.50;;;;;;;2.98;74.09;101123.59;109088;277;38943;-69
2023/10/09 04:35:26;;;;;;;8.90;4.50;;;;;;;3.01;74.10;101116.71;108988;277;38239;-68
2023/10/09 04:38:05;;;;;;;7.70;4.40;;;;;;;3.04;74.15;101112.94;109016;277;40002;-68
2023/10/09 04:40:51;;;;;;;;;;;;;;;3.07;74.01;101107.61;109128;277;38357;-68
2023/10/09 04:43:26;;;;;;;8.10;5.00;;;;;;;3.06;74.09;101105.03;108947;277;38475;-68
2023/10/09 04:46:12;;;;;;;8.50;5.00;;;;;;;3.08;74.09;101101.06;109013;277;38180;-67
2023/10/09 04:48:52;;;;;;;9.10;5.20;;;;;;;3.07;74.07;101099.69;108893;277;41853;-68
2023/10/09 04:51:36;;;;;;;8.60;4.70;;;;;;;3.06;74.06;101103.48;108918;277;39617;-67
2023/10/09 04:54:33;;;;;;;8.50;4.20;;;;;;;3.07;74.13;101097.10;108779;277;189165;-67
2023/10/09 04:57:17;;;;;;;7.60;4.40;;;;;;;3.09;73.89;101087.09;108960;277;38483;-66
2023/10/09 04:59:58;;;;;;;8.60;4.20;;;;;;;3.11;73.89;101084.01;108856;277;38460;-67
2023/10/09 05:02:36;;;;;;;8.40;4.40;;;;;;;3.13;73.88;101080.74;108926;277;40290;-69
2023/10/09 05:05:47;;;;;;;12.60;5.40;;;;;;;3.13;73.89;101068.84;108958;277;38484;-69
2023/10/09 05:08:19;;;;;;;8.80;4.90;;;;;;;3.10;73.86;101061.08;108947;277;39634;-70
2023/10/09 05:11:05;;;;;;;10.00;4.10;;;;;;;3.09;73.91;101059.88;108962;277;38769;-69
2023/10/09 05:13:43;;;;;;;7.40;3.70;;;;;;;3.09;73.97;101056.77;108974;277;38633;-69
2023/10/09 05:16:25;;;;;;;8.90;4.00;;;;;;;3.10;73.95;101052.81;109046;277;39413;-71
2023/10/09 05:18:59;;;;;;;10.10;4.70;;;;;;;3.14;73.90;101041.43;109033;277;38975;-69
2023/10/09 05:21:45;;;;;;;13.40;4.80;;;;;;;3.16;73.95;101035.93;108989;277;37465;-69
2023/10/09 05:24:23;;;;;;;11.10;5.50;;;;;;;3.19;73.99;101033.00;109001;277;38618;-70
2023/10/09 05:27:17;;;;;;;8.40;4.60;;;;;;;3.21;73.94;101041.64;109002;277;39150;-67
2023/10/09 05:30:12;;;;;;;5.60;4.00;;;;;;;3.23;73.89;101044.22;108985;277;38638;-67
2023/10/09 05:33:27;;;;;;;7.20;4.10;;;;;;;3.25;73.93;101050.08;108934;277;38295;-67
2023/10/09 05:36:17;;;;;;;8.10;4.10;;;;;;;3.28;73.98;101051.99;108917;277;38389;-69
2023/10/09 05:39:17;;;;;;;9.90;4.60;;;;;;;3.33;74.08;101050.11;108878;277;39121;-69
2023/10/09 05:42:08;;;;;;;10.50;4.30;;;;;;;3.38;74.19;101045.12;108934;277;38368;-68
2023/10/09 05:47:35;;;;;;;7.30;4.40;;;;;;;3.48;74.05;101042.03;109027;277;40084;-69
2023/10/09 05:50:34;;;;;;;8.30;4.10;;;;;;;3.49;74.15;101040.15;108836;277;175769;-68
2023/10/09 05:53:35;;;;;;;6.80;3.90;;;;;;;3.49;73.86;101039.45;108933;277;38544;-67
2023/10/09 06:04:53;;;;;;;6.70;3.80;;;;;;;3.71;73.73;101019.81;108909;277;38479;-68
2023/10/09 06:07:49;;;;;;;8.50;5.00;;;;;;;3.75;73.65;101019.13;109008;277;38927;-68
2023/10/09 06:10:39;;;;;;;8.60;3.70;;;;;;;3.78;73.66;101019.29;109007;277;39234;-68
2023/10/09 06:19:07;;;;;;;7.40;3.80;;;;;;;4.03;73.28;101023.95;108914;277;38219;-69
2023/10/09 06:24:41;;;;;;;6.90;3.80;;;;;;;4.17;73.00;101027.21;108934;277;38289;-69
2023/10/09 06:27:56;;;;;;;11.50;5.20;;;;;;;4.23;73.06;101027.88;108926;277;39739;-69
2023/10/09 06:30:27;;;;;;;7.90;4.50;;;;;;;4.29;73.02;101024.44;108916;277;38729;-69
2023/10/09 06:33:19;;;;;;;6.60;4.30;;;;;;;4.33;72.93;101025.96;108886;277;39479;-69
2023/10/09 06:36:08;;;;;;;6.10;3.50;;;;;;;4.37;72.92;101029.08;108981;277;39005;-68
2023/10/09 06:39:50;;;;;;;12.60;4.30;;;;;;;4.45;72.77;101027.34;108932;277;38295;-69
2023/10/09 06:42:08;;;;;;;7.90;4.20;;;;;;;4.56;73.00;101033.70;109006;277;38769;-69
2023/10/09 06:44:54;;;;;;;10.00;4.30;;;;;;;4.67;72.82;101026.58;108918;277;38278;-69
2023/10/09 06:47:40;;;;;;;9.70;4.30;;;;;;;4.76;72.61;101024.48;109044;277;38216;-69
2023/10/09 06:50:25;;;;;;;12.30;4.40;;;;;;;4.84;72.39;101022.36;109005;277;38322;-69
2023/10/09 06:53:19;;;;;;;8.80;4.30;;;;;;;4.93;72.27;101019.04;108978;277;38253;-71
2023/10/09 06:56:05;;;;;;;6.40;4.10;;;;;;;5.02;71.98;101016.07;108970;277;38449;-70
2023/10/09 06:58:47;;;;;;;8.80;3.80;;;;;;;5.09;71.79;101021.05;108990;277;39652;-69
2023/10/09 07:01:42;;;;;;;8.10;4.30;;;;;;;5.20;71.57;101021.16;109029;277;39411;-70
2023/10/09 07:04:45;;;;;;;7.80;4.80;;;;;;;5.33;71.49;101016.41;108909;277;39356;-67
2023/10/09 07:07:20;;;;;;;10.40;4.60;;;;;;;5.47;71.28;101019.79;108860;277;177352;-70
2023/10/09 07:12:53;;;;;;;13.00;4.90;;;;;;;5.75;71.54;101026.34;108913;277;39916;-69
2023/10/09 07:18:49;;;;;;;8.20;4.30;;;;;;;6.09;71.13;101026.59;108906;277;38345;-69
2023/10/09 07:21:28;;;;;;;9.80;4.80;;;;;;;6.27;70.56;101030.41;108992;277;38226;-69
2023/10/09 07:24:14;;;;;;;7.20;4.40;;;;;;;6.46;70.63;101036.30;108916;277;39186;-69
2023/10/09 07:26:53;;;;;;;6.70;4.50;;;;;;;6.65;70.31;101035.04;109060;277;39244;-68
2023/10/09 07:29:47;;;;;;;8.10;4.60;;;;;;;6.88;70.30;101030.27;109007;277;38296;-68
2023/10/09 07:32:31;;;;;;;9.50;4.80;;;;;;;7.15;69.88;101020.38;108990;277;38282;-69
2023/10/09 07:35:46;;;;;;;7.20;4.20;;;;;;;7.35;69.36;101013.34;108971;277;38889;-69
2023/10/09 07:38:23;;;;;;;7.40;4.60;;;;;;;7.55;68.82;101011.63;108992;277;38722;-69
2023/10/09 07:41:33;;;;;;;7.50;4.30;;;;;;;7.77;68.52;101010.95;108997;277;38417;-68
2023/10/09 07:44:18;;;;;;;7.40;4.60;;;;;;;7.93;67.45;101003.91;108939;277;38152;-67
2023/10/09 07:49:58;;;;;;;5.90;3.80;;;;;;;8.22;66.19;101016.08;108873;277;38584;-68
2023/10/09 07:52:43;;;;;;;5.70;3.80;;;;;;;8.31;65.17;101018.19;108917;277;41572;-68
2023/10/09 07:55:39;;;;;;;5.90;4.00;;;;;;;8.42;65.22;101017.48;108928;277;38270;-67
2023/10/09 07:58:24;;;;;;;7.20;3.60;;;;;;;8.65;65.13;101014.09;108840;277;175385;-68
2023/10/09 08:01:22;;;;;;;5.80;3.90;;;;;;;8.98;64.93;101009.23;108937;277;39414;-69
2023/10/09 08:04:12;;;;;;;5.90;3.50;;;;;;;9.25;63.48;100998.20;108932;277;38269;-69
2023/10/09 08:06:48;;;;;;;4.70;3.40;;;;;;;9.34;62.23;100994.51;108953;277;38974;-68
2023/10/09 08:09:46;;;;;;;5.10;3.00;;;;;;;9.38;61.36;100994.79;108947;277;39813;-68
2023/10/09 08:18:18;;;;;;;5.50;3.00;;;;;;;9.42;60.67;100983.89;108982;277;38202;-67
2023/10/09 08:24:04;;;;;;;3.90;2.90;;;;;;;9.44;60.04;100994.11;108984;277;38181;-69
2023/10/09 08:26:47;;;;;;;5.90;3.00;;;;;;;9.48;59.81;100996.10;108980;277;39236;-67
2023/10/09 08:29:34;;;;;;;5.80;3.10;;;;;;;9.55;59.63;100992.79;108955;277;39366;-67
2023/10/09 08:32:18;;;;;;;5.20;3.10;;;;;;;9.69;59.86;100987.41;109010;277;39015;-70
2023/10/09 08:34:53;;;;;;;3.40;2.50;;;;;;;9.88;59.86;100980.32;108918;277;38365;-69
2023/10/09 08:37:27;;;;;;;4.40;3.00;;;;;;;10.11;59.71;100980.93;108991;277;38193;-70
2023/10/09 08:40:07;;;;;;;3.90;2.60;;;;;;;10.37;59.22;100981.69;108907;277;38646;-69
2023/10/09 08:42:49;;;;;;;6.40;2.50;;;;;;;10.55;58.13;100977.86;108815;277;175258;-69
2023/10/09 08:45:28;;;;;;;5.80;3.00;;;;;;;10.69;57.10;100972.04;108941;277;39240;-67
2023/10/09 08:48:15;;;;;;;7.70;3.20;;;;;;;10.80;56.46;100974.33;108948;277;38206;-67
2023/10/09 08:50:54;;;;;;;5.30;2.30;;;;;;;10.84;55.81;100975.10;108948;277;38376;-69
2023/10/09 08:53:34;;;;;;;6.00;2.60;;;;;;;10.90;54.67;100976.16;108963;277;38154;-69
2023/10/09 08:56:08;;;;;;;5.20;3.20;;;;;;;10.94;55.21;100978.84;108997;277;38398;-69
2023/10/09 08:58:46;;;;;;;5.70;2.30;;;;;;;10.97;54.78;100969.13;108977;277;38435;-69
2023/10/09 09:01:24;;;;;;;5.50;2.80;;;;;;;10.99;54.73;100965.74;108997;277;38224;-70
2023/10/09 09:04:05;;;;;;;5.20;2.60;;;;;;;11.06;55.00;100961.88;109057;277;38250;-68
2023/10/09 09:06:43;;;;;;;5.00;2.20;;;;;;;11.18;54.68;100957.31;109029;277;39365;-69
2023/10/09 09:09:17;;;;;;;4.70;2.20;;;;;;;11.28;54.09;100952.46;108943;277;38231;-70
2023/10/09 09:11:52;;;;;;;4.00;2.30;;;;;;;11.37;52.86;100946.77;108970;277;38895;-68
2023/10/09 09:14:38;;;;;;;3.20;2.20;;;;;;;11.44;52.76;100938.69;108908;277;38273;-69
2023/10/09 09:17:14;;;;;;;4.20;2.30;;;;;;;11.48;52.40;100931.92;108957;277;38981;-69
2023/10/09 09:19:50;;;;;;;3.70;2.50;;;;;;;11.52;52.47;100932.64;108794;277;175279;-70
2023/10/09 09:22:26;;;;;;;7.50;2.50;;;;;;;11.54;52.03;100931.52;108967;277;39621;-67
2023/10/09 09:25:09;;;;;;;7.10;2.60;;;;;;;11.54;51.75;100931.71;108932;277;39665;-67
2023/10/09 09:27:56;;;;;;;4.40;2.30;;;;;;;11.51;51.09;100930.25;108937;277;38235;-67
2023/10/09 09:30:33;;;;;;;4.40;2.20;;;;;;;11.44;51.46;100931.70;108886;277;38189;-69
2023/10/09 09:33:32;;;;;;;4.40;1.90;;;;;;;11.44;51.97;100928.89;108924;277;38204;-69
2023/10/09 09:36:07;;;;;;;4.20;2.30;;;;;;;11.47;51.25;100927.21;108973;277;38696;-69
2023/10/09 09:38:48;;;;;;;4.40;1.90;;;;;;;11.73;52.03;100917.10;109040;277;38158;-70
2023/10/09 09:41:27;;;;;;;3.20;2.10;;;;;;;12.14;51.61;100904.84;109000;277;38617;-69
2023/10/09 09:44:06;;;;;;;3.70;2.10;;;;;;;12.43;50.86;100901.67;108965;277;38475;-68
2023/10/09 09:46:43;;;;;;;5.40;2.10;;;;;;;12.58;49.68;100899.73;108994;277;39718;-70
2023/10/09 09:49:21;;;;;;;2.80;1.70;;;;;;;12.67;49.49;100888.20;108967;277;38229;-69
2023/10/09 09:51:56;;;;;;;2.90;1.70;;;;;;;12.71;49.32;100882.95;109017;277;38316;-69
2023/10/09 09:54:36;;;;;;;2.90;1.50;;;;;;;12.76;48.96;100890.63;108945;277;39324;-69
2023/10/09 09:57:15;;;;;;;2.20;1.50;;;;;;;12.77;48.56;100888.33;108904;277;38233;-71
2023/10/09 09:59:52;;;;;;;;;;;;;;;12.76;47.92;100886.23;108896;277;38290;-70
2023/10/09 10:02:33;;;;;;;3.80;1.20;;;;;;;12.66;46.92;100881.58;108959;277;38267;-69
2023/10/09 10:05:11;;;;;;;4.40;1.50;;;;;;;12.62;47.18;100877.16;108908;277;38161;-69
2023/10/09 10:07:49;;;;;;;2.80;1.50;;;;;;;12.63;47.61;100880.79;108928;277;39697;-71
2023/10/09 10:10:47;;;;;;;7.10;2.60;;;;;;;12.66;47.41;100880.87;108926;277;38158;-69
2023/10/09 10:13:48;;;;;;;4.30;2.10;;;;;;;12.66;47.32;100876.83;108948;277;38170;-69
2023/10/09 10:16:34;;;;;;;6.20;2.40;;;;;;;12.62;46.95;100868.39;108970;277;38824;-68
2023/10/09 10:19:23;;;;;;;3.10;1.70;;;;;;;12.59;46.85;100861.88;108980;277;38258;-68
2023/10/09 10:22:01;;;;;;;;;;;;;;;12.55;46.63;100859.75;108882;277;174899;-70
2023/10/09 10:25:02;;;;;;;3.90;2.10;;;;;;;12.47;46.93;100858.48;109017;277;38294;-69
2023/10/09 10:28:00;;;;;;;4.30;2.60;;;;;;;12.41;46.69;100850.66;109027;277;38253;-67
2023/10/09 10:30:37;;;;;;;5.10;2.30;;;;;;;12.38;47.24;100849.21;109011;277;39637;-69
2023/10/09 10:33:15;;;;;;;4.30;2.30;;;;;;;12.40;47.67;100849.80;108996;277;39778;-69
2023/10/09 10:35:55;;;;;;;4.30;2.10;;;;;;;12.41;47.65;100848.05;108987;277;38737;-69
2023/10/09 10:38:34;;;;;;;3.80;2.30;;;;;;;12.42;47.59;100848.88;108966;277;39723;-67
2023/10/09 10:41:19;;;;;;;3.90;2.00;;;;;;;12.43;47.74;100836.92;108933;277;38442;-69
2023/10/09 10:46:55;;;;;;;3.10;2.00;;;;;;;12.42;47.88;100844.33;108479;277;635409;-69
2023/10/09 10:49:36;;;;;;;5.50;2.60;;;;;;;12.41;47.06;100841.38;108942;277;38415;-69
2023/10/09 10:52:19;;;;;;;4.00;2.90;;;;;;;12.35;47.48;100836.01;108927;277;39189;-67
2023/10/09 10:55:48;;;;;;;6.30;1.90;;;;;;;12.32;47.87;100834.20;108747;277;175181;-67
2023/10/09 10:58:35;;;;;;;2.50;1.90;;;;;;;12.28;47.72;100829.28;108920;277;38800;-66
2023/10/09 11:01:24;;;;;;;2.60;1.70;;;;;;;12.24;47.54;100831.00;108969;277;39587;-68
2023/10/09 11:04:08;;;;;;;2.70;1.70;;;;;;;12.18;47.18;100826.86;108937;277;38300;-68
2023/10/09 11:06:51;;;;;;;3.90;1.90;;;;;;;12.11;47.49;100822.58;109021;277;38194;-67
2023/10/09 11:09:36;;;;;;;3.40;2.00;;;;;;;12.06;47.24;100823.30;108987;277;38303;-67
2023/10/09 11:12:22;;;;;;;3.10;2.00;;;;;;;12.01;47.18;100814.73;109044;277;38299;-68
2023/10/09 11:15:08;;;;;;;3.30;2.10;;;;;;;11.98;47.76;100807.68;109014;277;38620;-67
2023/10/09 11:17:51;;;;;;;6.80;2.00;;;;;;;11.98;47.72;100803.65;109025;277;38779;-67
2023/10/09 11:20:33;;;;;;;2.60;2.00;;;;;;;11.95;47.30;100800.08;108979;277;38151;-71
2023/10/09 11:23:17;;;;;;;3.40;2.50;;;;;;;11.94;48.10;100793.49;108987;277;39900;-69
2023/10/09 11:26:20;;;;;;;4.90;2.30;;;;;;;11.95;47.89;100798.88;108990;277;38202;-69
2023/10/09 11:29:16;;;;;;;3.30;2.20;;;;;;;11.96;48.05;100797.76;108934;277;38481;-67
2023/10/09 11:32:17;;;;;;;4.10;2.40;;;;;;;12.01;48.16;100798.28;109007;277;39678;-67
2023/10/09 11:35:13;;;;;;;3.70;2.50;;;;;;;12.05;48.68;100802.70;108837;277;175235;-67
2023/10/09 11:38:00;;;;;;;3.00;2.10;;;;;;;12.10;48.73;100792.86;108907;277;39146;-68
2023/10/09 11:41:04;;;;;;;4.50;2.80;;;;;;;12.12;48.91;100789.64;108942;277;38271;-69
2023/10/09 11:43:57;;;;;;;3.50;2.50;;;;;;;12.15;48.62;100791.98;108937;277;38197;-68
2023/10/09 11:46:40;;;;;;;5.10;2.70;;;;;;;12.12;48.53;100783.72;108981;277;38465;-69
2023/10/09 11:49:34;;;;;;;5.10;2.50;;;;;;;12.12;49.04;100778.30;109012;277;39267;-69
2023/10/09 11:52:35;;;;;;;3.70;2.90;;;;;;;12.14;49.26;100775.08;108983;277;38158;-69
2023/10/09 11:55:16;;;;;;;5.00;3.00;;;;;;;12.19;50.01;100776.96;108974;277;38892;-69
2023/10/09 11:57:53;;;;;;;4.20;2.90;;;;;;;12.25;50.28;100771.48;109037;277;38380;-69
2023/10/09 12:00:44;;;;;;;4.80;3.30;;;;;;;12.30;50.52;100775.66;109062;277;38307;-69
2023/10/09 12:03:28;;;;;;;5.60;3.20;;;;;;;12.34;50.86;100775.33;108990;277;39483;-66
2023/10/09 12:06:05;;;;;;;6.30;3.50;;;;;;;12.32;50.60;100774.02;108961;277;38529;-69
2023/10/09 12:08:41;;;;;;;5.80;4.00;;;;;;;12.28;50.84;100766.66;108983;277;39387;-69
2023/10/09 12:11:22;;;;;;;4.50;3.90;;;;;;;12.27;51.34;100771.27;108965;277;38198;-67
2023/10/09 12:14:01;;;;;;;5.50;3.90;;;;;;;12.28;51.96;100772.61;108901;277;38884;-69
2023/10/09 12:16:44;;;;;;;5.70;3.70;;;;;;;12.33;52.15;100769.95;108920;277;38153;-67
2023/10/09 12:19:23;;;;;;;6.20;3.80;;;;;;;12.41;52.22;100759.52;108816;277;175245;-67
2023/10/09 12:22:05;;;;;;;5.70;4.00;;;;;;;12.41;51.90;100752.88;108959;277;39966;-68
2023/10/09 12:24:45;;;;;;;5.90;3.50;;;;;;;12.38;51.73;100750.69;108948;277;40143;-67
2023/10/09 12:27:25;;;;;;;5.20;3.50;;;;;;;12.31;51.66;100756.08;108912;277;38224;-69
2023/10/09 12:30:03;;;;;;;4.80;3.50;;;;;;;12.25;52.11;100756.82;108949;277;38335;-69
2023/10/09 12:32:37;;;;;;;6.80;4.10;;;;;;;12.23;52.45;100756.90;108970;277;38289;-69
2023/10/09 12:35:17;;;;;;;5.10;3.70;;;;;;;12.24;52.80;100762.80;108976;277;38446;-71
2023/10/09 12:37:52;;;;;;;5.60;3.60;;;;;;;12.22;52.88;100765.84;109079;277;38243;-70
2023/10/09 12:40:39;;;;;;;5.70;4.20;;;;;;;12.21;53.40;100763.95;109034;277;38605;-68
2023/10/09 12:43:19;;;;;;;5.60;4.00;;;;;;;12.20;53.02;100765.23;108935;277;38197;-68
2023/10/09 12:45:57;;;;;;;5.20;3.60;;;;;;;12.17;53.14;100764.99;108993;277;38422;-69
2023/10/09 12:48:37;;;;;;;5.60;4.00;;;;;;;12.16;53.56;100755.60;108973;277;39546;-70
2023/10/09 12:51:17;;;;;;;6.70;3.90;;;;;;;12.14;53.71;100755.32;109069;277;38293;-67
2023/10/09 12:53:58;;;;;;;5.00;3.70;;;;;;;12.13;53.76;100760.05;108970;277;39415;-67
2023/10/09 12:56:48;;;;;;;7.10;4.10;;;;;;;12.15;53.83;100759.65;108971;277;39905;-68
2023/10/09 12:59:24;;;;;;;6.60;4.20;;;;;;;12.10;53.84;100756.85;108926;277;39322;-68
2023/10/09 13:02:05;;;;;;;6.30;4.60;;;;;;;12.05;53.76;100750.92;108968;277;39415;-69
2023/10/09 13:04:43;;;;;;;6.00;4.20;;;;;;;11.97;53.59;100749.66;108951;277;39006;-69
2023/10/09 13:07:21;;;;;;;5.30;4.20;;;;;;;11.90;53.84;100747.30;108841;277;175287;-67
2023/10/09 13:10:13;;;;;;;5.70;4.20;;;;;;;11.83;53.81;100748.77;108884;277;38481;-67
2023/10/09 13:12:55;;;;;;;5.80;4.30;;;;;;;11.75;53.95;100746.97;109002;277;39783;-69
2023/10/09 13:15:42;;;;;;;6.60;4.50;;;;;;;11.66;54.28;100744.83;108969;277;38256;-69
2023/10/09 13:18:23;;;;;;;6.40;4.10;;;;;;;11.58;54.59;100746.36;108962;277;38659;-71
2023/10/09 13:20:58;;;;;;;6.80;4.10;;;;;;;11.51;54.75;100745.02;109057;277;38632;-69
2023/10/09 13:23:40;;;;;;;8.30;4.60;;;;;;;11.47;55.05;100743.61;109001;277;38430;-69
2023/10/09 13:26:18;;;;;;;6.60;4.60;;;;;;;11.42;55.04;100737.69;108987;277;38254;-69
2023/10/09 13:28:53;;;;;;;5.80;3.80;;;;;;;11.35;54.92;100735.63;109023;277;38857;-69
2023/10/09 13:31:33;;;;;;;6.00;4.10;;;;;;;11.29;55.10;100719.10;108990;277;38192;-67